Time;durP1;ratioP1;P1;durP2;ratioP2;P2;SDS_P1;SDS_P2;PMS_P1;PMS_P2;Temp;Humidity;BMP_temperature;BMP_pressure;BME280_temperature;BME280_humidity;BME280_pressure;Samples;Min_cycle;Max_cycle;Signal;HPM_P1;HPM_P2
2022/04/08 00:03:33;;;;;;;7.72;1.65;;;;;;;7.36;92.34;98771.22;8322393;28;20049;-66
2022/04/08 00:07:34;;;;;;;4.78;1.52;;;;;;;7.35;92.23;98772.22;8321965;28;20460;-66
2022/04/08 00:11:34;;;;;;;6.43;1.90;;;;;;;7.41;91.62;98790.38;8320933;28;20116;-66
2022/04/08 00:15:36;;;;;;;8.07;2.08;;;;;;;7.43;91.98;98798.28;8320731;28;20037;-66
2022/04/08 00:19:36;;;;;;;5.43;1.65;;;;;;;7.35;92.61;98785.66;8318786;28;20542;-66
2022/04/08 00:23:37;;;;;;;5.00;1.58;;;;;;;7.26;93.63;98793.84;8318183;28;20045;-66
2022/04/08 00:27:38;;;;;;;4.75;1.83;;;;;;;7.14;95.07;98798.66;8322337;28;20034;-66
2022/04/08 00:31:39;;;;;;;4.72;1.25;;;;;;;7.09;95.64;98801.00;8315605;28;20065;-66
2022/04/08 00:35:39;;;;;;;2.95;1.63;;;;;;;7.05;96.57;98821.09;8344802;28;20040;-66
2022/04/08 00:39:40;;;;;;;3.40;1.60;;;;;;;6.88;99.17;98818.50;8315159;28;20418;-65
2022/04/08 00:43:40;;;;;;;8.45;2.22;;;;;;;6.83;100.00;98826.22;8317161;28;20052;-65
2022/04/08 00:47:41;;;;;;;4.07;1.75;;;;;;;6.85;100.00;98835.78;8323871;28;20045;-66
2022/04/08 00:51:41;;;;;;;9.25;2.40;;;;;;;6.90;99.89;98843.38;8326834;28;20077;-66
2022/04/08 00:55:42;;;;;;;8.38;2.13;;;;;;;6.94;100.00;98847.41;8327836;28;20068;-66
2022/04/08 00:59:42;;;;;;;5.47;2.85;;;;;;;7.01;100.00;98852.00;8327298;28;20041;-66
2022/04/08 01:03:43;;;;;;;7.85;2.70;;;;;;;7.01;100.00;98852.00;8327861;28;20037;-66
2022/04/08 01:07:43;;;;;;;8.63;3.20;;;;;;;7.07;100.00;98859.41;8327748;28;20037;-66
2022/04/08 01:11:44;;;;;;;5.35;2.75;;;;;;;7.13;99.71;98861.47;8325958;28;20045;-66
2022/04/08 01:15:45;;;;;;;10.02;2.83;;;;;;;7.10;100.00;98871.69;8317428;28;20625;-66
2022/04/08 01:19:45;;;;;;;7.30;2.70;;;;;;;7.16;100.00;98882.66;8322443;28;20091;-66
2022/04/08 01:23:47;;;;;;;5.45;2.88;;;;;;;7.23;99.65;98882.88;8327244;28;20045;-66
2022/04/08 01:27:48;;;;;;;11.38;3.40;;;;;;;7.32;99.16;98892.66;8325992;28;20045;-66
2022/04/08 01:31:48;;;;;;;8.95;2.83;;;;;;;7.39;96.44;98889.16;8313605;28;20041;-66
2022/04/08 01:35:49;;;;;;;10.13;3.17;;;;;;;7.31;94.44;98899.88;8326711;28;20034;-65
2022/04/08 01:39:49;;;;;;;5.93;2.90;;;;;;;7.28;93.99;98910.94;8326201;28;20065;-65
2022/04/08 01:43:49;;;;;;;12.65;3.47;;;;;;;7.27;95.03;98917.31;8323121;28;20126;-65
2022/04/08 01:47:50;;;;;;;5.75;2.45;;;;;;;7.30;95.34;98911.63;8323569;28;20125;-65
2022/04/08 01:51:50;;;;;;;7.72;2.55;;;;;;;7.32;96.85;98914.97;8325420;28;20029;-65
2022/04/08 01:55:51;;;;;;;9.48;2.67;;;;;;;7.35;97.06;98914.66;8322293;28;20168;-66
2022/04/08 01:59:52;;;;;;;8.48;3.33;;;;;;;7.32;96.54;98917.66;8324897;28;20045;-66
2022/04/08 02:03:53;;;;;;;5.93;3.45;;;;;;;7.31;96.14;98918.69;8348014;28;20045;-66
2022/04/08 02:07:54;;;;;;;10.13;4.60;;;;;;;7.34;94.31;98921.06;8308553;28;20044;-66
2022/04/08 02:11:55;;;;;;;9.88;4.85;;;;;;;7.30;93.30;98922.38;8317467;28;20083;-66
2022/04/08 02:15:55;;;;;;;6.28;5.18;;;;;;;7.23;94.32;98937.44;8324685;28;20034;-66
2022/04/08 02:19:56;;;;;;;6.88;3.47;;;;;;;7.18;96.16;98937.09;8324192;28;20502;-66
2022/04/08 02:23:57;;;;;;;5.65;2.90;;;;;;;7.12;96.94;98940.41;8325796;28;20406;-66
2022/04/08 02:27:58;;;;;;;9.30;3.45;;;;;;;7.06;97.70;98948.22;8326112;28;20034;-66
2022/04/08 02:31:59;;;;;;;7.38;3.67;;;;;;;6.99;98.48;98956.09;8325166;28;20436;-66
2022/04/08 02:36:00;;;;;;;7.13;3.63;;;;;;;6.87;98.78;98945.75;8325434;28;20033;-66
2022/04/08 02:40:00;;;;;;;13.30;3.92;;;;;;;6.86;99.28;98957.50;8307027;28;20517;-66
2022/04/08 02:44:00;;;;;;;11.40;3.97;;;;;;;6.80;99.15;98960.78;8325825;28;20099;-66
2022/04/08 02:48:01;;;;;;;5.97;4.63;;;;;;;6.78;99.08;98968.16;8320682;28;20089;-66
2022/04/08 02:52:01;;;;;;;7.53;4.53;;;;;;;6.77;99.56;98961.94;8322566;28;20128;-67
2022/04/08 02:56:02;;;;;;;10.38;5.18;;;;;;;6.75;99.49;98969.31;8323579;28;20116;-66
2022/04/08 03:00:03;;;;;;;11.93;6.72;;;;;;;6.70;99.89;98966.25;8322710;28;20029;-66
2022/04/08 03:04:06;;;;;;;14.38;6.85;;;;;;;6.69;100.00;98959.19;8325081;28;20030;-67
2022/04/08 03:08:06;;;;;;;11.98;6.95;;;;;;;6.69;100.00;98959.19;8324040;28;20041;-66
2022/04/08 03:12:07;;;;;;;8.75;5.93;;;;;;;6.66;99.21;98964.00;8321136;28;20112;-66
2022/04/08 03:16:07;;;;;;;14.15;6.22;;;;;;;6.63;99.85;98959.81;8324610;28;20044;-66
2022/04/08 03:20:08;;;;;;;10.95;5.30;;;;;;;6.55;99.83;98957.03;8323734;28;20033;-66
2022/04/08 03:24:10;;;;;;;9.13;5.22;;;;;;;6.58;99.47;98951.34;8303788;28;20045;-66
2022/04/08 03:28:10;;;;;;;14.38;5.30;;;;;;;6.56;99.28;98960.56;8317686;28;20048;-66
2022/04/08 03:32:11;;;;;;;12.90;5.47;;;;;;;6.52;99.62;98975.31;8332209;28;20037;-67
2022/04/08 03:36:11;;;;;;;10.85;5.13;;;;;;;6.52;99.71;98978.81;8324438;28;20045;-67
2022/04/08 03:40:12;;;;;;;8.80;5.20;;;;;;;6.43;100.00;98990.47;8323227;28;20045;-67
2022/04/08 03:44:13;;;;;;;9.02;4.97;;;;;;;6.38;100.00;98998.16;8324535;28;20053;-66
2022/04/08 03:48:13;;;;;;;13.10;5.47;;;;;;;6.30;100.00;98998.03;8323024;28;20037;-66
2022/04/08 03:52:14;;;;;;;8.57;5.40;;;;;;;6.32;100.00;99009.47;8323476;28;20045;-66
2022/04/08 03:56:14;;;;;;;7.38;4.20;;;;;;;6.33;100.00;99027.25;8322673;28;20506;-66
2022/04/08 04:00:15;;;;;;;10.43;4.82;;;;;;;6.31;100.00;99018.50;8322943;28;20045;-66
2022/04/08 04:04:16;;;;;;;9.45;5.13;;;;;;;6.28;100.00;99021.50;8323658;28;20084;-66
2022/04/08 04:08:18;;;;;;;7.82;4.28;;;;;;;6.34;100.00;99018.22;8322363;28;20068;-66
2022/04/08 04:12:19;;;;;;;6.82;4.30;;;;;;;6.32;100.00;99036.31;8317998;28;20040;-65
2022/04/08 04:16:19;;;;;;;7.03;4.25;;;;;;;6.38;100.00;99030.34;8319430;28;20537;-65
2022/04/08 04:20:20;;;;;;;12.25;5.10;;;;;;;6.45;100.00;99055.59;8317328;28;20033;-65
2022/04/08 04:24:20;;;;;;;7.22;4.38;;;;;;;6.51;100.00;99057.66;8325291;28;20060;-65
2022/04/08 04:28:21;;;;;;;7.78;4.65;;;;;;;6.56;100.00;99065.28;8317770;28;20116;-65
2022/04/08 04:32:21;;;;;;;10.02;4.93;;;;;;;6.58;100.00;99050.69;8323324;28;20076;-65
2022/04/08 04:36:22;;;;;;;7.22;4.35;;;;;;;6.54;99.77;99041.25;8325993;28;20041;-65
2022/04/08 04:40:22;;;;;;;6.57;3.35;;;;;;;6.58;99.77;99042.63;8305654;28;20041;-65
2022/04/08 04:44:23;;;;;;;7.32;3.90;;;;;;;6.53;99.81;99044.94;8323071;28;20457;-66
2022/04/08 04:48:23;;;;;;;6.53;3.65;;;;;;;6.48;100.00;99043.69;8321127;28;20378;-66
2022/04/08 04:52:24;;;;;;;8.43;3.38;;;;;;;6.47;99.49;99040.19;8324415;28;20049;-66
2022/04/08 04:56:25;;;;;;;10.80;3.95;;;;;;;6.48;99.63;99036.50;8319285;28;20514;-66
2022/04/08 05:00:26;;;;;;;10.05;3.30;;;;;;;6.50;99.56;99036.34;8318641;28;20449;-66
2022/04/08 05:04:26;;;;;;;4.35;2.70;;;;;;;6.49;99.58;99043.53;8321934;28;20056;-66
2022/04/08 05:08:26;;;;;;;5.80;3.38;;;;;;;6.50;99.63;99049.75;8321440;28;20136;-66
2022/04/08 05:12:27;;;;;;;6.90;3.47;;;;;;;6.57;99.70;99054.38;8321788;28;20509;-66
2022/04/08 05:16:28;;;;;;;13.55;3.60;;;;;;;6.60;98.99;99055.91;8319384;28;20053;-66
2022/04/08 05:20:29;;;;;;;9.73;3.60;;;;;;;6.68;98.97;99043.41;8314593;28;20072;-66
2022/04/08 05:24:29;;;;;;;9.50;4.05;;;;;;;6.62;98.65;99049.38;8310867;28;20056;-66
2022/04/08 05:28:29;;;;;;;8.90;3.97;;;;;;;6.61;98.20;99046.84;8319094;28;20544;-66
2022/04/08 05:32:30;;;;;;;7.95;3.60;;;;;;;6.67;98.04;99051.59;8322274;28;20048;-66
2022/04/08 05:36:30;;;;;;;8.73;4.47;;;;;;;6.73;97.20;99041.13;8315298;28;20057;-66
2022/04/08 05:40:31;;;;;;;8.20;4.10;;;;;;;6.76;97.48;99027.38;8319360;28;20662;-67
2022/04/08 05:44:31;;;;;;;8.30;5.00;;;;;;;6.80;97.35;99036.81;8321432;28;20506;-67
2022/04/08 05:48:33;;;;;;;11.43;5.50;;;;;;;6.94;97.01;99033.59;8320885;28;20041;-67
2022/04/08 05:52:33;;;;;;;7.97;5.13;;;;;;;7.12;95.51;99023.69;8322229;28;20030;-67
2022/04/08 05:56:34;;;;;;;9.20;4.82;;;;;;;7.16;95.30;99029.56;8322630;28;20041;-67
2022/04/08 06:00:35;;;;;;;7.03;4.18;;;;;;;7.15;95.81;99023.38;8322316;28;20521;-67
2022/04/08 06:04:36;;;;;;;8.70;4.50;;;;;;;7.23;95.91;99023.44;8323101;28;20510;-67
2022/04/08 06:08:37;;;;;;;6.78;4.25;;;;;;;7.27;96.30;99022.13;8322131;28;20410;-67
2022/04/08 06:12:37;;;;;;;11.75;4.13;;;;;;;7.35;95.84;99011.44;8321060;28;20399;-67
2022/04/08 06:16:37;;;;;;;9.80;4.40;;;;;;;7.38;95.20;99011.13;8320837;28;20049;-67
2022/04/08 06:20:38;;;;;;;10.25;4.45;;;;;;;7.43;96.12;98998.06;8320124;28;20142;-67
2022/04/08 06:24:39;;;;;;;8.15;4.60;;;;;;;7.48;96.39;99006.47;8304470;28;20542;-67
2022/04/08 06:28:39;;;;;;;9.35;4.30;;;;;;;7.51;95.91;99006.16;8321562;28;20090;-67
2022/04/08 06:32:41;;;;;;;6.67;4.43;;;;;;;7.54;96.07;99007.69;8320632;28;20038;-67
2022/04/08 06:36:42;;;;;;;7.80;5.05;;;;;;;7.63;95.54;99012.97;8322306;28;20276;-67
2022/04/08 06:40:42;;;;;;;8.13;4.50;;;;;;;7.67;95.37;99017.03;8321161;28;20048;-67
2022/04/08 06:44:42;;;;;;;9.25;4.40;;;;;;;7.72;95.24;99012.00;8321495;28;20046;-67
2022/04/08 06:48:43;;;;;;;9.57;5.20;;;;;;;7.80;94.31;99017.44;8321357;28;20033;-67
2022/04/08 06:52:43;;;;;;;10.60;5.00;;;;;;;7.76;93.64;99015.22;8320637;28;20280;-67
2022/04/08 06:56:44;;;;;;;10.63;5.55;;;;;;;7.87;93.82;99012.28;8319438;28;20029;-67
2022/04/08 07:00:44;;;;;;;13.85;4.70;;;;;;;8.17;93.50;99013.59;8320096;28;20041;-67
2022/04/08 07:04:45;;;;;;;7.82;4.35;;;;;;;8.37;90.55;99002.41;8321022;28;20543;-67
2022/04/08 07:08:45;;;;;;;9.07;4.60;;;;;;;8.67;90.08;98993.75;8307812;28;20037;-67
2022/04/08 07:12:46;;;;;;;12.57;4.50;;;;;;;8.61;87.72;98990.84;8314472;28;20026;-67
2022/04/08 07:16:47;;;;;;;12.25;4.50;;;;;;;8.55;87.38;98992.38;8321520;28;20095;-67
2022/04/08 07:20:48;;;;;;;9.32;4.20;;;;;;;8.41;86.62;98990.31;8318446;28;20505;-67
2022/04/08 07:24:50;;;;;;;7.72;4.57;;;;;;;8.30;86.53;98993.31;8319598;28;20046;-67
2022/04/08 07:28:50;;;;;;;8.82;4.10;;;;;;;8.27;85.80;98984.72;8319277;28;20041;-62
2022/04/08 07:32:52;;;;;;;11.32;4.32;;;;;;;8.34;85.43;98977.66;8318899;28;20041;-66
2022/04/08 07:36:52;;;;;;;8.75;4.07;;;;;;;8.26;82.82;98985.72;8300805;28;20049;-66
2022/04/08 07:40:53;;;;;;;13.38;4.28;;;;;;;8.26;84.26;98991.09;8320254;28;20068;-66
2022/04/08 07:44:54;;;;;;;7.53;4.32;;;;;;;8.23;85.50;98991.44;8319772;28;20115;-66
2022/04/08 07:48:54;;;;;;;5.82;3.70;;;;;;;8.23;85.00;98992.25;8320489;28;20037;-66
2022/04/08 07:52:55;;;;;;;7.78;4.03;;;;;;;8.24;85.28;98991.28;8320672;28;20061;-66
2022/04/08 07:56:55;;;;;;;8.57;4.60;;;;;;;8.30;85.94;98984.38;8327634;28;20048;-66
2022/04/08 08:00:56;;;;;;;12.18;4.28;;;;;;;8.39;85.99;98986.09;8326304;28;20101;-66
2022/04/08 08:04:56;;;;;;;7.05;3.80;;;;;;;8.44;84.62;98976.50;8325649;28;20033;-66
2022/04/08 08:08:58;;;;;;;10.65;3.67;;;;;;;8.45;84.27;98970.09;8326844;28;20087;-66
2022/04/08 08:13:01;;;;;;;6.97;4.57;;;;;;;8.59;85.29;98971.31;8326647;28;20533;-66
2022/04/08 08:17:01;;;;;;;12.52;4.65;;;;;;;8.82;85.33;98961.59;8326895;28;20082;-66
2022/04/08 08:21:02;;;;;;;7.57;4.63;;;;;;;8.88;84.78;98967.13;8325728;28;20034;-66
2022/04/08 08:25:04;;;;;;;9.32;4.40;;;;;;;8.94;84.17;98968.34;8325431;28;20045;-66
2022/04/08 08:29:04;;;;;;;7.50;4.72;;;;;;;8.77;83.04;98955.84;8325816;28;20110;-66
2022/04/08 08:33:06;;;;;;;8.57;5.20;;;;;;;8.94;85.02;98957.56;8325021;28;20079;-66
2022/04/08 08:37:06;;;;;;;5.95;4.72;;;;;;;8.89;85.34;98951.81;8324825;28;20425;-66
2022/04/08 08:41:09;;;;;;;12.65;5.05;;;;;;;8.91;83.65;98952.50;8308099;28;20052;-66
2022/04/08 08:45:11;;;;;;;13.00;5.25;;;;;;;8.88;83.65;98948.25;8324764;28;20113;-66
2022/04/08 08:49:12;;;;;;;11.32;4.90;;;;;;;8.81;83.32;98941.06;8325133;28;20125;-66
2022/04/08 08:53:18;;;;;;;12.68;5.63;;;;;;;8.85;84.24;98934.31;8327092;28;20532;-66
2022/04/08 08:57:20;;;;;;;10.77;5.15;;;;;;;9.04;83.83;98921.34;8324919;28;20084;-66
2022/04/08 09:01:20;;;;;;;10.23;5.22;;;;;;;9.17;84.44;98910.88;8323445;28;20042;-66
2022/04/08 09:05:25;;;;;;;10.15;5.00;;;;;;;9.12;81.78;98909.72;8324898;28;20132;-66
2022/04/08 09:09:30;;;;;;;10.38;5.15;;;;;;;9.21;81.31;98903.28;8324875;28;20041;-66
2022/04/08 09:13:44;;;;;;;8.02;4.55;;;;;;;9.00;79.57;98890.31;8323479;28;20037;-66
2022/04/08 09:17:44;;;;;;;8.35;4.82;;;;;;;9.16;80.93;98881.38;8324435;28;20455;-66
2022/04/08 09:21:52;;;;;;;11.60;4.82;;;;;;;9.08;80.03;98878.69;8323996;28;20107;-66
2022/04/08 09:26:03;;;;;;;11.77;5.53;;;;;;;8.97;81.38;98873.66;8324156;28;20225;-66
2022/04/08 09:30:04;;;;;;;9.25;5.05;;;;;;;9.14;79.68;98865.38;8305954;28;20666;-66
2022/04/08 09:34:13;;;;;;;9.13;4.90;;;;;;;9.20;80.48;98869.22;8322091;28;20075;-67
2022/04/08 09:38:22;;;;;;;8.23;4.75;;;;;;;9.20;79.46;98864.69;8305415;28;20045;-67
2022/04/08 09:42:24;;;;;;;9.80;4.93;;;;;;;9.23;79.55;98852.72;8322545;28;20502;-67
2022/04/08 09:46:24;;;;;;;8.65;4.70;;;;;;;9.29;78.33;98846.63;8323603;28;20060;-67
2022/04/08 09:50:26;;;;;;;8.77;4.63;;;;;;;9.14;77.64;98848.34;8316055;28;20135;-67
2022/04/08 09:54:29;;;;;;;10.90;5.97;;;;;;;9.36;79.52;98850.31;8325787;28;20283;-67
2022/04/08 09:58:33;;;;;;;9.45;5.15;;;;;;;9.33;79.09;98858.78;8321389;28;20053;-67
2022/04/08 10:02:39;;;;;;;8.40;4.80;;;;;;;9.36;78.86;98858.41;8321033;28;20453;-66
2022/04/08 10:06:42;;;;;;;8.85;4.35;;;;;;;9.26;79.13;98871.25;8322294;28;20042;-66
2022/04/08 10:10:51;;;;;;;9.75;5.07;;;;;;;9.31;78.25;98871.56;8320930;28;20057;-66
2022/04/08 10:15:03;;;;;;;6.40;5.05;;;;;;;9.35;78.39;98864.81;8325958;28;20398;-66
2022/04/08 10:19:04;;;;;;;10.05;4.53;;;;;;;9.47;79.50;98877.75;8318594;28;20128;-66
2022/04/08 10:23:09;;;;;;;6.72;4.07;;;;;;;9.44;79.18;98869.16;8321189;28;20557;-66
2022/04/08 10:27:09;;;;;;;6.25;3.67;;;;;;;9.45;78.37;98865.44;8321993;28;20083;-66
2022/04/08 10:31:20;;;;;;;11.57;4.65;;;;;;;9.41;78.30;98858.72;8321978;28;20116;-66
2022/04/08 10:35:21;;;;;;;9.68;4.30;;;;;;;9.30;78.11;98854.53;8316477;28;20136;-66
2022/04/08 10:39:23;;;;;;;7.13;4.50;;;;;;;9.24;79.54;98854.41;8321111;28;20045;-66
2022/04/08 10:43:25;;;;;;;7.20;4.05;;;;;;;9.20;77.44;98836.88;8342958;28;20065;-66
2022/04/08 10:47:27;;;;;;;13.15;5.10;;;;;;;9.24;79.69;98839.06;8319607;28;20076;-66
2022/04/08 10:51:30;;;;;;;9.38;4.80;;;;;;;9.23;79.15;98825.75;8321046;28;20041;-66
2022/04/08 10:55:30;;;;;;;13.80;5.20;;;;;;;9.34;79.75;98812.72;8318749;28;20493;-67
2022/04/08 10:59:31;;;;;;;11.70;3.92;;;;;;;9.26;78.25;98795.75;8320708;28;20150;-67
2022/04/08 11:03:32;;;;;;;8.98;4.35;;;;;;;9.29;78.59;98787.31;8320045;28;20087;-67
2022/04/08 11:07:32;;;;;;;13.90;5.00;;;;;;;9.26;80.01;98776.88;8320441;28;20038;-67
2022/04/08 11:11:35;;;;;;;10.50;4.57;;;;;;;9.16;78.58;98768.16;8319927;28;20095;-67
2022/04/08 11:15:38;;;;;;;12.07;5.35;;;;;;;9.29;78.88;98765.75;8318239;28;20041;-67
2022/04/08 11:19:40;;;;;;;8.32;4.43;;;;;;;9.29;77.21;98754.97;8317788;28;20061;-67
2022/04/08 11:23:41;;;;;;;9.93;4.60;;;;;;;9.50;78.92;98747.94;8318894;28;20041;-67
2022/04/08 11:27:41;;;;;;;10.48;4.55;;;;;;;9.36;76.90;98750.53;8319871;28;20035;-67
2022/04/08 11:31:44;;;;;;;16.60;5.00;;;;;;;9.80;78.02;98738.16;8320336;28;20129;-67
2022/04/08 11:35:46;;;;;;;7.95;3.33;;;;;;;9.99;78.09;98733.13;8316488;28;20053;-60
2022/04/08 11:39:57;;;;;;;7.13;4.75;;;;;;;9.92;77.75;98736.72;8313502;28;20045;-67
2022/04/08 11:44:00;;;;;;;11.85;5.22;;;;;;;9.50;77.45;98741.72;8346161;28;20038;-67
2022/04/08 11:48:01;;;;;;;8.38;5.50;;;;;;;9.63;80.42;98739.25;8317884;28;20037;-67
2022/04/08 11:52:03;;;;;;;17.58;6.78;;;;;;;9.57;79.79;98731.88;8318004;28;20092;-67
2022/04/08 11:56:04;;;;;;;9.82;4.45;;;;;;;9.40;80.81;98741.09;8316423;28;20037;-67
2022/04/08 12:00:08;;;;;;;7.30;2.65;;;;;;;8.97;82.70;98722.75;8338546;28;20085;-67
2022/04/08 12:04:12;;;;;;;6.43;2.80;;;;;;;8.78;84.86;98723.16;8317286;28;20361;-67
2022/04/08 12:08:13;;;;;;;9.52;2.97;;;;;;;9.04;85.06;98712.94;8316343;28;20080;-67
2022/04/08 12:12:13;;;;;;;11.55;3.30;;;;;;;9.20;81.96;98712.88;8316947;28;20485;-67
2022/04/08 12:16:14;;;;;;;7.15;3.15;;;;;;;9.29;79.95;98699.19;8315805;28;20516;-67
2022/04/08 12:20:17;;;;;;;12.35;3.88;;;;;;;9.29;81.45;98701.03;8315295;28;20544;-67
2022/04/08 12:24:19;;;;;;;12.02;3.38;;;;;;;9.34;78.52;98712.13;8317251;28;20040;-67
2022/04/08 12:28:35;;;;;;;7.15;3.22;;;;;;;9.36;77.89;98702.00;8312336;28;20061;-67
2022/04/08 12:32:39;;;;;;;5.10;2.58;;;;;;;9.33;75.68;98692.41;8317136;28;20037;-67
2022/04/08 12:36:39;;;;;;;6.17;2.60;;;;;;;9.19;77.91;98689.63;8312979;28;20410;-67
2022/04/08 12:40:42;;;;;;;8.77;2.58;;;;;;;9.14;79.06;98698.25;8312736;28;20043;-67
2022/04/08 12:44:42;;;;;;;6.82;2.22;;;;;;;8.99;79.11;98686.53;8320173;28;20425;-67
2022/04/08 12:48:42;;;;;;;4.82;2.63;;;;;;;9.01;77.83;98687.19;8320954;28;20041;-67
2022/04/08 12:52:43;;;;;;;5.40;1.88;;;;;;;9.07;78.85;98688.34;8315605;28;20119;-67
2022/04/08 12:56:43;;;;;;;7.50;1.80;;;;;;;9.01;77.73;98686.34;8322205;28;20030;-67
2022/04/08 13:00:44;;;;;;;6.10;1.60;;;;;;;9.00;78.93;98684.69;8322380;28;20486;-68
2022/04/08 13:04:44;;;;;;;5.63;1.33;;;;;;;8.91;79.76;98681.16;8321468;28;20045;-68
2022/04/08 13:08:44;;;;;;;5.65;1.77;;;;;;;9.08;80.86;98676.53;8322076;28;20037;-68
2022/04/08 13:12:45;;;;;;;3.55;1.35;;;;;;;9.11;80.16;98673.50;8321190;28;20037;-68
2022/04/08 13:16:45;;;;;;;5.85;1.27;;;;;;;9.03;79.83;98670.84;8318685;28;20116;-68
2022/04/08 13:20:46;;;;;;;6.35;1.98;;;;;;;8.98;81.40;98665.16;8319521;28;20041;-68
2022/04/08 13:24:46;;;;;;;3.33;1.20;;;;;;;9.08;80.95;98665.75;8322213;28;20130;-68
2022/04/08 13:28:47;;;;;;;4.15;1.63;;;;;;;8.93;81.04;98672.91;8321195;28;20026;-68
2022/04/08 13:32:49;;;;;;;4.82;1.30;;;;;;;8.93;81.15;98683.69;8320843;28;20037;-68
2022/04/08 13:36:49;;;;;;;5.70;1.00;;;;;;;9.00;80.83;98690.06;8316747;28;20099;-68
2022/04/08 13:40:50;;;;;;;2.22;1.38;;;;;;;8.96;79.68;98683.31;8298177;28;20494;-68
2022/04/08 13:44:51;;;;;;;7.30;1.85;;;;;;;8.91;81.38;98691.13;8315568;28;20037;-68
2022/04/08 13:48:53;;;;;;;3.38;1.30;;;;;;;8.89;79.23;98690.44;8315265;28;20045;-67
2022/04/08 13:52:54;;;;;;;3.53;1.20;;;;;;;8.94;78.41;98688.06;8317919;28;20460;-68
2022/04/08 13:56:54;;;;;;;1.70;1.25;;;;;;;8.96;77.77;98694.09;8312683;28;20494;-68
2022/04/08 14:00:55;;;;;;;4.35;1.92;;;;;;;8.91;77.21;98669.56;8315874;28;20123;-68
2022/04/08 14:04:55;;;;;;;5.72;1.92;;;;;;;9.01;77.97;98670.19;8317919;28;20045;-68
2022/04/08 14:08:56;;;;;;;2.47;1.55;;;;;;;8.99;76.13;98680.28;8319845;28;20406;-68
2022/04/08 14:12:56;;;;;;;3.88;1.48;;;;;;;9.18;75.26;98677.19;8320023;28;20068;-68
2022/04/08 14:16:56;;;;;;;1.98;1.20;;;;;;;9.27;76.21;98665.34;8318249;28;20116;-68
2022/04/08 14:20:57;;;;;;;3.00;1.50;;;;;;;9.38;76.20;98670.31;8318550;28;20510;-68
2022/04/08 14:24:57;;;;;;;5.03;2.13;;;;;;;9.41;76.29;98651.06;8319157;28;20773;-68
2022/04/08 14:28:58;;;;;;;6.03;2.35;;;;;;;9.45;76.41;98647.00;8318472;28;20037;-67
2022/04/08 14:32:58;;;;;;;3.70;2.28;;;;;;;9.42;78.42;98640.13;8302979;28;20041;-67
2022/04/08 14:36:59;;;;;;;8.20;3.20;;;;;;;9.30;76.95;98659.59;8312454;28;20418;-67
2022/04/08 14:40:59;;;;;;;10.82;3.33;;;;;;;9.31;78.15;98650.47;8308804;28;20406;-67
2022/04/08 14:45:00;;;;;;;7.03;3.40;;;;;;;9.29;78.58;98663.28;8295836;28;20156;-68
2022/04/08 14:49:00;;;;;;;5.00;3.20;;;;;;;9.20;78.71;98642.78;8314216;28;20255;-68
2022/04/08 14:53:01;;;;;;;6.93;3.47;;;;;;;9.10;77.32;98642.19;8316033;28;20041;-68
2022/04/08 14:57:01;;;;;;;10.77;4.28;;;;;;;9.12;77.47;98653.63;8305681;28;20884;-68
2022/04/08 15:01:02;;;;;;;6.32;3.25;;;;;;;9.11;77.25;98654.63;8312888;28;20046;-68
2022/04/08 15:05:03;;;;;;;10.07;2.70;;;;;;;8.96;76.02;98661.78;8291690;28;20037;-66
2022/04/08 15:09:04;;;;;;;5.30;2.92;;;;;;;8.93;75.76;98670.22;8316261;28;20483;-66
2022/04/08 15:13:05;;;;;;;5.18;3.00;;;;;;;8.91;76.66;98678.47;8292732;28;20042;-66
2022/04/08 15:17:05;;;;;;;10.65;2.72;;;;;;;8.95;74.68;98676.28;8305089;28;20072;-66
2022/04/08 15:21:07;;;;;;;6.93;2.65;;;;;;;8.93;74.75;98687.22;8301259;28;20056;-66
2022/04/08 15:25:08;;;;;;;6.55;2.50;;;;;;;8.88;74.29;98691.47;8299101;28;20510;-66
2022/04/08 15:29:08;;;;;;;7.07;2.83;;;;;;;8.77;74.57;98699.91;8295872;28;20061;-66
2022/04/08 15:33:09;;;;;;;12.43;4.03;;;;;;;8.71;76.27;98695.22;8311939;28;20029;-66
2022/04/08 15:37:10;;;;;;;7.38;3.25;;;;;;;8.77;75.21;98695.38;8309315;28;20563;-66
2022/04/08 15:41:10;;;;;;;3.50;2.30;;;;;;;8.76;75.20;98709.03;8305236;28;20030;-66
2022/04/08 15:45:11;;;;;;;6.22;3.20;;;;;;;8.88;74.58;98713.84;8310693;28;20045;-67
2022/04/08 15:49:11;;;;;;;4.90;2.10;;;;;;;8.90;74.15;98721.75;8307848;28;20554;-68
2022/04/08 15:53:12;;;;;;;8.40;2.03;;;;;;;9.00;74.73;98719.72;8309414;28;20441;-67
2022/04/08 15:57:13;;;;;;;2.97;2.00;;;;;;;9.15;74.48;98729.56;8305886;28;20037;-67
2022/04/08 16:01:13;;;;;;;4.90;2.70;;;;;;;9.15;73.54;98731.44;8311122;28;20102;-67
2022/04/08 16:05:14;;;;;;;3.53;1.98;;;;;;;9.09;73.52;98729.44;8311102;28;20537;-67
2022/04/08 16:09:18;;;;;;;4.10;1.73;;;;;;;8.98;74.79;98719.88;8307361;28;20189;-67
2022/04/08 16:13:18;;;;;;;3.30;1.90;;;;;;;8.89;76.04;98733.56;8310296;28;20394;-67
2022/04/08 16:17:19;;;;;;;3.85;1.63;;;;;;;8.69;77.12;98726.91;8315757;28;20826;-67
2022/04/08 16:21:20;;;;;;;3.58;1.42;;;;;;;8.58;77.13;98732.63;8311640;28;20041;-67
2022/04/08 16:25:21;;;;;;;2.60;1.45;;;;;;;8.56;78.16;98713.94;8312802;28;20675;-67
2022/04/08 16:29:21;;;;;;;2.10;1.20;;;;;;;8.50;79.42;98711.94;8317708;28;20430;-67
2022/04/08 16:33:23;;;;;;;6.85;1.77;;;;;;;8.41;79.93;98709.44;8315630;28;20096;-67
2022/04/08 16:37:23;;;;;;;2.88;1.52;;;;;;;8.32;79.98;98710.47;8313676;28;20569;-67
2022/04/08 16:41:24;;;;;;;2.80;1.20;;;;;;;8.22;81.18;98705.28;8306012;28;20387;-67
2022/04/08 16:45:24;;;;;;;2.50;1.20;;;;;;;7.97;80.27;98707.09;8322138;28;20064;-67
2022/04/08 16:49:24;;;;;;;2.75;1.40;;;;;;;7.88;81.65;98708.13;8314188;28;20095;-67
2022/04/08 16:53:25;;;;;;;3.03;1.77;;;;;;;7.85;80.92;98700.38;8305357;28;20342;-67
2022/04/08 16:57:25;;;;;;;3.10;1.17;;;;;;;7.76;82.10;98703.22;8318600;28;20044;-67
2022/04/08 17:01:26;;;;;;;4.88;1.40;;;;;;;7.58;83.20;98705.22;8318463;28;20120;-67
2022/04/08 17:05:26;;;;;;;4.10;1.33;;;;;;;7.48;83.52;98705.38;8317982;28;20761;-67
2022/04/08 17:09:28;;;;;;;2.85;1.70;;;;;;;7.36;87.36;98712.09;8319698;28;20103;-67
2022/04/08 17:13:28;;;;;;;2.47;1.40;;;;;;;7.42;86.77;98711.44;8318155;28;20053;-67
2022/04/08 17:17:29;;;;;;;3.75;1.75;;;;;;;7.32;87.59;98708.03;8317565;28;20042;-67
2022/04/08 17:21:29;;;;;;;5.45;1.80;;;;;;;7.30;87.50;98717.28;8315531;28;20550;-67
2022/04/08 17:25:30;;;;;;;5.60;1.40;;;;;;;7.32;87.91;98723.34;8316554;28;20037;-67
2022/04/08 17:29:30;;;;;;;2.83;1.70;;;;;;;7.22;88.04;98711.84;8319429;28;20040;-67
2022/04/08 17:33:31;;;;;;;1.52;1.38;;;;;;;7.24;88.24;98726.00;8320064;28;20050;-67
2022/04/08 17:37:32;;;;;;;4.10;2.00;;;;;;;7.14;88.53;98726.13;8319813;28;20294;-67
2022/04/08 17:41:32;;;;;;;4.75;2.05;;;;;;;7.01;89.80;98723.03;8321596;28;20043;-67
2022/04/08 17:45:34;;;;;;;5.53;2.05;;;;;;;6.96;90.78;98725.41;8317671;28;20045;-67
2022/04/08 17:49:34;;;;;;;4.32;2.67;;;;;;;6.91;91.42;98725.03;8299737;28;20176;-67
2022/04/08 17:53:35;;;;;;;2.80;1.70;;;;;;;6.90;92.31;98720.66;8307268;28;20489;-67
2022/04/08 17:57:36;;;;;;;3.42;1.52;;;;;;;6.88;92.49;98728.03;8292706;28;20044;-67
2022/04/08 18:01:37;;;;;;;6.60;1.58;;;;;;;6.92;92.36;98734.75;8316548;28;20049;-67
2022/04/08 18:05:37;;;;;;;5.05;1.88;;;;;;;6.82;93.02;98727.81;8306831;28;20103;-67
2022/04/08 18:09:38;;;;;;;4.43;2.22;;;;;;;6.82;92.89;98738.56;8315754;28;20049;-67
2022/04/08 18:13:38;;;;;;;3.10;1.70;;;;;;;6.76;93.06;98742.75;8319306;28;20041;-67
2022/04/08 18:17:40;;;;;;;3.15;1.73;;;;;;;6.74;93.03;98739.38;8314792;28;20045;-67
2022/04/08 18:21:40;;;;;;;6.13;1.80;;;;;;;6.70;93.06;98739.84;8314952;28;20045;-67
2022/04/08 18:25:41;;;;;;;3.80;1.85;;;;;;;6.71;93.43;98731.63;8316007;28;20045;-67
2022/04/08 18:29:41;;;;;;;4.95;2.30;;;;;;;6.68;93.80;98736.50;8320774;28;20052;-67
2022/04/08 18:33:42;;;;;;;4.38;2.22;;;;;;;6.67;93.63;98741.03;8319319;28;20038;-67
2022/04/08 18:37:43;;;;;;;5.80;2.20;;;;;;;6.61;93.42;98735.44;8331203;28;20052;-67
2022/04/08 18:41:45;;;;;;;6.63;2.22;;;;;;;6.62;93.39;98737.13;8313921;28;20490;-67
2022/04/08 18:45:46;;;;;;;4.10;2.30;;;;;;;6.61;94.82;98744.34;8314427;28;20041;-67
2022/04/08 18:49:47;;;;;;;10.23;2.58;;;;;;;6.52;97.47;98742.59;8317205;28;20385;-67
2022/04/08 18:53:47;;;;;;;6.55;3.42;;;;;;;6.45;98.58;98741.56;8318530;28;20033;-67
2022/04/08 18:57:47;;;;;;;8.90;3.88;;;;;;;6.45;100.00;98756.81;8317598;28;20474;-67
2022/04/08 19:01:48;;;;;;;5.78;3.47;;;;;;;6.48;100.00;98760.03;8317198;28;20059;-67
2022/04/08 19:05:49;;;;;;;6.13;3.38;;;;;;;6.52;99.89;98774.81;8316221;28;20402;-67